Time;durP1;ratioP1;P1;durP2;ratioP2;P2;SDS_P1;SDS_P2;PMS_P1;PMS_P2;Temp;Humidity;BMP_temperature;BMP_pressure;BME280_temperature;BME280_humidity;BME280_pressure;Samples;Min_cycle;Max_cycle;Signal;HPM_P1;HPM_P2
2023/05/13 00:01:30;;;;;;;3.83;3.50;;;;;;;;;;5011874;28;20264;-85
2023/05/13 00:03:58;;;;;;;5.73;4.17;;;;;;;;;;5011706;28;20206;-85
2023/05/13 00:06:28;;;;;;;6.70;4.37;;;;;;;;;;5011811;28;20211;-85
2023/05/13 00:08:57;;;;;;;13.37;2.83;;;;;;;;;;5011650;28;20202;-85
2023/05/13 00:11:25;;;;;;;2.63;2.40;;;;;;;;;;5014067;28;20241;-85
2023/05/13 00:13:54;;;;;;;2.50;2.40;;;;;;;;;;5015579;28;20302;-85
2023/05/13 00:16:26;;;;;;;3.20;2.90;;;;;;;;;;5015306;28;20234;-85
2023/05/13 00:18:55;;;;;;;2.93;2.70;;;;;;;;;;5014660;28;20230;-85
2023/05/13 00:21:23;;;;;;;6.47;4.13;;;;;;;;;;5015585;28;20271;-85
2023/05/13 00:23:53;;;;;;;4.93;3.83;;;;;;;;;;5014947;28;20212;-85
2023/05/13 00:26:21;;;;;;;2.00;1.90;;;;;;;;;;5015338;28;20379;-85
2023/05/13 00:28:50;;;;;;;3.53;3.23;;;;;;;;;;5014728;28;20212;-85
2023/05/13 00:31:18;;;;;;;2.07;1.97;;;;;;;;;;5014946;28;20201;-84
2023/05/13 00:33:47;;;;;;;1.93;1.83;;;;;;;;;;5014627;28;20292;-84
2023/05/13 00:36:15;;;;;;;2.43;2.23;;;;;;;;;;5014828;28;20238;-85
2023/05/13 00:38:44;;;;;;;3.43;3.13;;;;;;;;;;5014655;28;20198;-85
2023/05/13 00:41:13;;;;;;;3.10;2.90;;;;;;;;;;5015109;28;20209;-84
2023/05/13 00:43:42;;;;;;;4.93;4.50;;;;;;;;;;5014813;28;20213;-85
2023/05/13 00:46:10;;;;;;;2.43;2.23;;;;;;;;;;5014674;28;20207;-85
2023/05/13 00:48:39;;;;;;;4.50;4.10;;;;;;;;;;5014427;28;20395;-85
2023/05/13 00:51:08;;;;;;;4.23;3.80;;;;;;;;;;5014217;28;20263;-84
2023/05/13 00:53:36;;;;;;;2.40;2.20;;;;;;;;;;5014567;28;20228;-85
2023/05/13 00:56:05;;;;;;;3.73;2.97;;;;;;;;;;5014436;28;20228;-85
2023/05/13 00:58:35;;;;;;;3.13;2.83;;;;;;;;;;5014492;28;20263;-85
2023/05/13 01:01:09;;;;;;;2.37;2.23;;;;;;;;;;5014348;28;20197;-84
2023/05/13 01:03:42;;;;;;;2.00;1.90;;;;;;;;;;5014610;28;20199;-85
2023/05/13 01:06:12;;;;;;;4.13;2.90;;;;;;;;;;5013810;28;20221;-85
2023/05/13 01:08:44;;;;;;;2.70;2.50;;;;;;;;;;5014065;28;20262;-85
2023/05/13 01:11:14;;;;;;;7.07;4.53;;;;;;;;;;5013921;28;20245;-85
2023/05/13 01:13:47;;;;;;;2.33;2.23;;;;;;;;;;5013724;28;20226;-85
2023/05/13 01:16:18;;;;;;;2.07;1.97;;;;;;;;;;5014429;28;20232;-85
2023/05/13 01:18:50;;;;;;;3.40;3.07;;;;;;;;;;5014454;28;20239;-85
2023/05/13 01:21:23;;;;;;;4.33;3.53;;;;;;;;;;5014211;28;20230;-85
2023/05/13 01:23:51;;;;;;;2.50;2.40;;;;;;;;;;5014225;28;20203;-85
2023/05/13 01:26:20;;;;;;;3.90;3.40;;;;;;;;;;5013766;28;20205;-84
2023/05/13 01:28:48;;;;;;;1.53;1.43;;;;;;;;;;5013877;28;20227;-85
2023/05/13 01:31:17;;;;;;;5.53;3.50;;;;;;;;;;5013477;28;20199;-85
2023/05/13 01:33:46;;;;;;;5.23;4.83;;;;;;;;;;5014131;28;20232;-84
2023/05/13 01:36:14;;;;;;;4.37;3.97;;;;;;;;;;5013503;28;20209;-84
2023/05/13 01:38:44;;;;;;;3.57;3.30;;;;;;;;;;5013611;28;20213;-84
2023/05/13 01:41:13;;;;;;;8.57;3.43;;;;;;;;;;5013556;28;20249;-84
2023/05/13 01:43:41;;;;;;;3.67;3.43;;;;;;;;;;5013519;28;20331;-85
2023/05/13 01:46:12;;;;;;;6.20;5.70;;;;;;;;;;5013264;28;20219;-84
2023/05/13 01:48:41;;;;;;;6.40;3.50;;;;;;;;;;5013246;28;20242;-84
2023/05/13 01:51:09;;;;;;;4.63;4.23;;;;;;;;;;5013122;28;20278;-85
2023/05/13 01:53:38;;;;;;;3.73;3.43;;;;;;;;;;5013202;28;20274;-84
2023/05/13 01:56:09;;;;;;;6.00;5.40;;;;;;;;;;5013152;28;20238;-84
2023/05/13 01:58:38;;;;;;;4.20;3.90;;;;;;;;;;5014028;28;20200;-84
2023/05/13 02:01:06;;;;;;;7.20;4.87;;;;;;;;;;5012828;28;20208;-85
2023/05/13 02:03:35;;;;;;;7.53;6.37;;;;;;;;;;5013517;28;20287;-85
2023/05/13 02:06:04;;;;;;;5.57;5.07;;;;;;;;;;5013412;28;20204;-85
2023/05/13 02:08:32;;;;;;;7.37;5.50;;;;;;;;;;5013574;28;20207;-84
2023/05/13 02:11:01;;;;;;;4.87;4.30;;;;;;;;;;5012869;28;20250;-85
2023/05/13 02:13:31;;;;;;;3.73;3.00;;;;;;;;;;5012974;28;20231;-85
2023/05/13 02:16:00;;;;;;;4.37;2.83;;;;;;;;;;5012854;28;20262;-84
2023/05/13 02:18:28;;;;;;;4.53;4.03;;;;;;;;;;5012991;28;20204;-85
2023/05/13 02:20:57;;;;;;;3.77;2.73;;;;;;;;;;5013123;28;20410;-85
2023/05/13 02:23:25;;;;;;;4.10;3.80;;;;;;;;;;5013073;28;20196;-85
2023/05/13 02:25:54;;;;;;;6.80;3.77;;;;;;;;;;5012927;28;20226;-85
2023/05/13 02:28:22;;;;;;;4.37;4.07;;;;;;;;;;5013496;28;20220;-85
2023/05/13 02:30:52;;;;;;;10.87;7.27;;;;;;;;;;5012999;28;20195;-85
2023/05/13 02:33:20;;;;;;;4.33;4.03;;;;;;;;;;5012344;28;20219;-85
2023/05/13 02:35:49;;;;;;;4.10;3.80;;;;;;;;;;5013186;28;20203;-85
2023/05/13 02:38:17;;;;;;;6.00;5.43;;;;;;;;;;5012902;28;20192;-85
2023/05/13 02:40:46;;;;;;;8.27;4.50;;;;;;;;;;5013028;28;20200;-85
2023/05/13 02:43:14;;;;;;;8.80;5.33;;;;;;;;;;5012646;28;20195;-85
2023/05/13 02:45:43;;;;;;;9.63;5.33;;;;;;;;;;5012367;28;20258;-85
2023/05/13 02:48:13;;;;;;;7.70;6.33;;;;;;;;;;5012150;28;20204;-84
2023/05/13 02:50:42;;;;;;;7.67;6.97;;;;;;;;;;5013036;28;20204;-85
2023/05/13 02:53:10;;;;;;;6.50;5.90;;;;;;;;;;5012585;28;20284;-85
2023/05/13 02:55:38;;;;;;;5.83;5.33;;;;;;;;;;5011963;28;20204;-85
2023/05/13 02:58:07;;;;;;;7.20;6.43;;;;;;;;;;5012172;28;20206;-85
2023/05/13 03:00:35;;;;;;;7.23;5.53;;;;;;;;;;5012343;28;20203;-84
2023/05/13 03:03:04;;;;;;;7.80;7.00;;;;;;;;;;5012575;28;20226;-85
2023/05/13 03:05:34;;;;;;;9.23;7.77;;;;;;;;;;5012183;28;20309;-85
2023/05/13 03:08:02;;;;;;;5.57;5.10;;;;;;;;;;5012259;28;20225;-85
2023/05/13 03:10:30;;;;;;;8.67;7.57;;;;;;;;;;5011973;28;20244;-85
2023/05/13 03:12:59;;;;;;;10.17;9.17;;;;;;;;;;5011633;28;20247;-84
2023/05/13 03:15:27;;;;;;;11.87;10.40;;;;;;;;;;5012536;28;20234;-84
2023/05/13 03:17:56;;;;;;;8.43;7.40;;;;;;;;;;5012063;28;20223;-85
2023/05/13 03:20:25;;;;;;;11.67;8.07;;;;;;;;;;5012076;28;20226;-85
2023/05/13 03:22:55;;;;;;;7.60;6.60;;;;;;;;;;5011693;28;20282;-85
2023/05/13 03:25:23;;;;;;;9.90;8.80;;;;;;;;;;5011717;28;20196;-84
2023/05/13 03:27:52;;;;;;;10.40;8.80;;;;;;;;;;5011880;28;20231;-85
2023/05/13 03:30:20;;;;;;;8.03;7.23;;;;;;;;;;5011957;28;20203;-85
2023/05/13 03:32:49;;;;;;;10.87;9.60;;;;;;;;;;5011519;28;20195;-85
2023/05/13 03:35:18;;;;;;;10.83;8.43;;;;;;;;;;5011606;28;20258;-85
2023/05/13 03:37:48;;;;;;;8.53;7.30;;;;;;;;;;5011966;28;20196;-85
2023/05/13 03:40:20;;;;;;;10.23;7.67;;;;;;;;;;5012356;28;20227;-85
2023/05/13 03:42:48;;;;;;;15.53;9.43;;;;;;;;;;5011493;28;20204;-85
2023/05/13 03:45:17;;;;;;;13.27;11.43;;;;;;;;;;5015120;28;20246;-85
2023/05/13 03:47:45;;;;;;;6.20;5.17;;;;;;;;;;5015796;28;20199;-85
2023/05/13 03:50:14;;;;;;;13.77;10.23;;;;;;;;;;5015943;28;20291;-85
2023/05/13 03:52:42;;;;;;;11.90;9.00;;;;;;;;;;5015094;28;20205;-84
2023/05/13 03:55:14;;;;;;;14.83;12.63;;;;;;;;;;5015475;28;20220;-85
2023/05/13 03:57:49;;;;;;;16.13;10.40;;;;;;;;;;5015579;28;20218;-85
2023/05/13 04:00:17;;;;;;;9.77;8.90;;;;;;;;;;5015808;28;20206;-85
2023/05/13 04:02:46;;;;;;;4.73;4.17;;;;;;;;;;5015519;28;20192;-85
2023/05/13 04:05:15;;;;;;;7.93;7.23;;;;;;;;;;5015645;28;20200;-84
2023/05/13 04:07:43;;;;;;;12.00;10.37;;;;;;;;;;5015105;28;20203;-85
2023/05/13 04:10:12;;;;;;;6.77;6.03;;;;;;;;;;5015546;28;20235;-85
2023/05/13 04:12:47;;;;;;;7.53;6.90;;;;;;;;;;5015672;28;20227;-84
2023/05/13 04:15:16;;;;;;;10.33;6.47;;;;;;;;;;5014771;28;20223;-85
2023/05/13 04:17:44;;;;;;;8.60;7.17;;;;;;;;;;5015421;28;20245;-85
2023/05/13 04:20:13;;;;;;;5.67;4.97;;;;;;;;;;5015088;28;20285;-85
2023/05/13 04:22:41;;;;;;;8.30;7.63;;;;;;;;;;5014628;28;20203;-85
2023/05/13 04:25:10;;;;;;;15.20;9.37;;;;;;;;;;5015368;28;20196;-84
2023/05/13 04:27:38;;;;;;;7.00;5.00;;;;;;;;;;5014904;28;20295;-85
2023/05/13 04:30:09;;;;;;;6.07;5.13;;;;;;;;;;5015235;28;20208;-84
2023/05/13 04:32:37;;;;;;;11.47;8.60;;;;;;;;;;5014985;28;20314;-84
2023/05/13 04:35:07;;;;;;;37.50;9.33;;;;;;;;;;5014685;28;20250;-85
2023/05/13 04:37:36;;;;;;;4.40;4.10;;;;;;;;;;5015065;28;20196;-84
2023/05/13 04:40:04;;;;;;;13.30;8.70;;;;;;;;;;5014742;28;20243;-85
2023/05/13 04:42:33;;;;;;;10.90;9.77;;;;;;;;;;5014795;28;20212;-85
2023/05/13 04:45:01;;;;;;;22.27;6.77;;;;;;;;;;5014793;28;20231;-84
2023/05/13 04:47:33;;;;;;;11.03;8.80;;;;;;;;;;5014663;28;20231;-85
2023/05/13 04:50:02;;;;;;;5.00;3.93;;;;;;;;;;5014650;28;20206;-85
2023/05/13 04:52:31;;;;;;;9.20;7.97;;;;;;;;;;5014563;28;20212;-85
2023/05/13 04:54:59;;;;;;;13.67;9.90;;;;;;;;;;5014255;28;20311;-85
2023/05/13 04:57:27;;;;;;;12.30;7.37;;;;;;;;;;5014254;28;20227;-85
2023/05/13 04:59:56;;;;;;;8.47;7.70;;;;;;;;;;5014576;28;20247;-85
2023/05/13 05:02:25;;;;;;;2.20;2.03;;;;;;;;;;5013851;28;20258;-85
2023/05/13 05:04:54;;;;;;;17.77;10.87;;;;;;;;;;5014362;28;20207;-85
2023/05/13 05:07:23;;;;;;;9.20;7.57;;;;;;;;;;5014293;28;20242;-86
2023/05/13 05:09:51;;;;;;;16.07;9.00;;;;;;;;;;5013994;28;20240;-86
2023/05/13 05:12:20;;;;;;;9.10;6.23;;;;;;;;;;5013770;28;20302;-85
2023/05/13 05:14:48;;;;;;;6.43;5.77;;;;;;;;;;5014057;28;20223;-85
2023/05/13 05:17:17;;;;;;;10.10;3.67;;;;;;;;;;5014151;28;20298;-86
2023/05/13 05:19:45;;;;;;;10.57;7.43;;;;;;;;;;5013853;28;20199;-86
2023/05/13 05:22:15;;;;;;;4.13;3.83;;;;;;;;;;5014154;28;20254;-85
2023/05/13 05:24:43;;;;;;;7.03;6.43;;;;;;;;;;5013919;28;20200;-85
2023/05/13 05:27:12;;;;;;;6.20;5.67;;;;;;;;;;5013893;28;20220;-85
2023/05/13 05:29:40;;;;;;;6.00;5.47;;;;;;;;;;5013786;28;20199;-85
2023/05/13 05:32:09;;;;;;;4.13;3.80;;;;;;;;;;5013830;28;20250;-85
2023/05/13 05:34:37;;;;;;;8.63;6.67;;;;;;;;;;5013405;28;20254;-85
2023/05/13 05:37:06;;;;;;;4.60;4.30;;;;;;;;;;5014033;28;20239;-84
2023/05/13 05:39:35;;;;;;;4.73;3.73;;;;;;;;;;5013857;28;20236;-85
2023/05/13 05:42:04;;;;;;;12.83;8.07;;;;;;;;;;5013618;28;20220;-85
2023/05/13 05:44:32;;;;;;;6.43;5.70;;;;;;;;;;5013838;28;20192;-84
2023/05/13 05:47:00;;;;;;;5.67;4.47;;;;;;;;;;5013758;28;20203;-84
2023/05/13 05:49:29;;;;;;;10.40;6.77;;;;;;;;;;5013134;28;20295;-85
2023/05/13 05:51:57;;;;;;;5.47;4.97;;;;;;;;;;5013107;28;20255;-85
2023/05/13 05:54:26;;;;;;;4.60;4.23;;;;;;;;;;5013824;28;20290;-85
2023/05/13 05:56:55;;;;;;;6.87;6.27;;;;;;;;;;5013245;28;20272;-86
2023/05/13 05:59:24;;;;;;;4.93;4.53;;;;;;;;;;5013577;28;20262;-85
2023/05/13 06:01:52;;;;;;;9.47;7.17;;;;;;;;;;5013633;28;20298;-85
2023/05/13 06:04:20;;;;;;;4.53;4.20;;;;;;;;;;5013000;28;20209;-85
2023/05/13 06:06:49;;;;;;;8.07;5.10;;;;;;;;;;5012516;28;20248;-85
2023/05/13 06:09:17;;;;;;;7.13;5.97;;;;;;;;;;5013217;28;20209;-86
2023/05/13 06:11:46;;;;;;;5.67;5.20;;;;;;;;;;5012816;28;20261;-86
2023/05/13 06:14:16;;;;;;;8.43;5.90;;;;;;;;;;5012944;28;20240;-85
2023/05/13 06:16:44;;;;;;;11.47;5.23;;;;;;;;;;5013544;28;20211;-85
2023/05/13 06:19:13;;;;;;;7.70;6.93;;;;;;;;;;5012846;28;20206;-85
2023/05/13 06:21:42;;;;;;;9.13;6.87;;;;;;;;;;5012478;28;20230;-85
2023/05/13 06:24:10;;;;;;;2.60;2.37;;;;;;;;;;5013069;28;20229;-85
2023/05/13 06:26:38;;;;;;;5.13;4.17;;;;;;;;;;5012976;28;20244;-86
2023/05/13 06:29:07;;;;;;;5.47;4.53;;;;;;;;;;5012596;28;20209;-86
2023/05/13 06:31:37;;;;;;;3.53;3.33;;;;;;;;;;5012598;28;20229;-85
2023/05/13 06:34:05;;;;;;;4.17;3.50;;;;;;;;;;5012978;28;20215;-86
2023/05/13 06:36:33;;;;;;;7.70;5.40;;;;;;;;;;5012500;28;20247;-85
2023/05/13 06:39:02;;;;;;;11.33;3.53;;;;;;;;;;5013272;28;20305;-85
2023/05/13 06:41:31;;;;;;;8.47;5.73;;;;;;;;;;5012894;28;20207;-85
2023/05/13 06:43:59;;;;;;;4.03;3.73;;;;;;;;;;5012110;28;20248;-86
2023/05/13 06:46:28;;;;;;;4.23;3.77;;;;;;;;;;5012472;28;20297;-85
2023/05/13 06:48:57;;;;;;;4.90;4.53;;;;;;;;;;5012658;28;20217;-86
2023/05/13 06:51:29;;;;;;;4.43;4.07;;;;;;;;;;5012224;28;20233;-85
2023/05/13 06:53:57;;;;;;;4.50;4.10;;;;;;;;;;5012391;28;20317;-85
2023/05/13 06:56:26;;;;;;;6.20;4.13;;;;;;;;;;5012644;28;20332;-85
2023/05/13 06:58:54;;;;;;;7.50;6.03;;;;;;;;;;5012648;28;20224;-85
2023/05/13 07:01:23;;;;;;;8.47;5.47;;;;;;;;;;5012052;28;20216;-85
2023/05/13 07:03:55;;;;;;;6.30;5.03;;;;;;;;;;5012713;28;20211;-85
2023/05/13 07:06:24;;;;;;;3.83;3.53;;;;;;;;;;5012413;28;20302;-86
2023/05/13 07:08:53;;;;;;;4.80;3.73;;;;;;;;;;5011882;28;20309;-85
2023/05/13 07:11:21;;;;;;;4.27;3.30;;;;;;;;;;5012189;28;20273;-85
2023/05/13 07:13:50;;;;;;;4.40;3.97;;;;;;;;;;5012245;28;20228;-85
2023/05/13 07:16:18;;;;;;;4.00;3.60;;;;;;;;;;5011495;28;20222;-85
2023/05/13 07:18:46;;;;;;;5.17;3.80;;;;;;;;;;5013833;28;20296;-85
2023/05/13 07:21:15;;;;;;;4.10;3.77;;;;;;;;;;5019045;28;20223;-85
2023/05/13 07:23:45;;;;;;;4.60;4.03;;;;;;;;;;5018560;28;20202;-85
2023/05/13 07:26:13;;;;;;;3.27;2.97;;;;;;;;;;5018812;28;20201;-85
2023/05/13 07:28:42;;;;;;;3.03;2.73;;;;;;;;;;5018637;28;20230;-85
2023/05/13 07:31:10;;;;;;;3.27;2.97;;;;;;;;;;5018301;28;20214;-85
2023/05/13 07:33:39;;;;;;;3.57;3.27;;;;;;;;;;5018709;28;20207;-85
2023/05/13 07:36:07;;;;;;;3.40;3.10;;;;;;;;;;5018520;28;20233;-85
2023/05/13 07:38:36;;;;;;;7.03;4.40;;;;;;;;;;5018110;28;20198;-85
2023/05/13 07:41:06;;;;;;;2.20;2.00;;;;;;;;;;5018308;28;20210;-85
2023/05/13 07:43:34;;;;;;;6.00;4.83;;;;;;;;;;5018560;28;20235;-86
2023/05/13 07:46:03;;;;;;;2.90;2.60;;;;;;;;;;5018607;28;20207;-86
2023/05/13 07:48:31;;;;;;;4.10;2.77;;;;;;;;;;5018309;28;20207;-86
2023/05/13 07:50:59;;;;;;;3.20;3.00;;;;;;;;;;5018576;28;20207;-84
2023/05/13 07:53:28;;;;;;;3.27;2.97;;;;;;;;;;5018444;28;20290;-84
2023/05/13 07:55:56;;;;;;;2.40;2.23;;;;;;;;;;5018255;28;20230;-85
2023/05/13 07:58:26;;;;;;;5.80;3.77;;;;;;;;;;5018096;28;20226;-85
2023/05/13 08:00:55;;;;;;;2.13;2.03;;;;;;;;;;5018160;28;20203;-85
2023/05/13 08:03:23;;;;;;;3.03;2.73;;;;;;;;;;5018103;28;20204;-84
2023/05/13 08:05:52;;;;;;;3.50;3.27;;;;;;;;;;5018407;28;20229;-85
2023/05/13 08:08:20;;;;;;;3.57;3.17;;;;;;;;;;5018162;28;20230;-84
2023/05/13 08:10:49;;;;;;;4.77;3.27;;;;;;;;;;5017883;28;20277;-85
2023/05/13 08:13:20;;;;;;;3.80;3.40;;;;;;;;;;5016402;28;20206;-85
2023/05/13 08:15:50;;;;;;;3.33;3.03;;;;;;;;;;5013047;28;20254;-85
2023/05/13 08:18:19;;;;;;;4.20;2.70;;;;;;;;;;5017276;28;20239;-85
2023/05/13 08:20:47;;;;;;;3.43;3.13;;;;;;;;;;5019199;28;20203;-84
2023/05/13 08:23:16;;;;;;;2.07;1.97;;;;;;;;;;5019310;28;20204;-84
2023/05/13 08:25:46;;;;;;;11.27;1.83;;;;;;;;;;5018014;28;20192;-84
2023/05/13 08:28:14;;;;;;;3.63;3.17;;;;;;;;;;5018062;28;20219;-84
2023/05/13 08:30:43;;;;;;;3.30;2.83;;;;;;;;;;5016054;28;20207;-84
2023/05/13 08:33:13;;;;;;;3.40;2.37;;;;;;;;;;5014980;28;20230;-85
2023/05/13 08:35:41;;;;;;;3.40;3.10;;;;;;;;;;5014960;28;20302;-85
2023/05/13 08:38:12;;;;;;;5.50;3.53;;;;;;;;;;5014975;28;20202;-85
2023/05/13 08:40:40;;;;;;;2.83;2.53;;;;;;;;;;5015048;28;20202;-84
2023/05/13 08:43:09;;;;;;;9.23;3.33;;;;;;;;;;5014809;28;20407;-84
2023/05/13 08:45:38;;;;;;;3.20;2.93;;;;;;;;;;5014919;28;20282;-84
2023/05/13 08:48:07;;;;;;;4.97;3.60;;;;;;;;;;5014448;28;20260;-85
2023/05/13 08:50:37;;;;;;;3.53;3.23;;;;;;;;;;5014860;28;20199;-85
2023/05/13 08:53:07;;;;;;;3.50;2.80;;;;;;;;;;5014416;28;20195;-85
2023/05/13 08:55:35;;;;;;;3.60;2.97;;;;;;;;;;5014839;28;20207;-85
2023/05/13 08:58:03;;;;;;;7.00;3.67;;;;;;;;;;5014112;28;20234;-84
2023/05/13 09:00:33;;;;;;;3.93;3.50;;;;;;;;;;5014388;28;20195;-84
2023/05/13 09:03:01;;;;;;;3.13;2.93;;;;;;;;;;5015049;28;20199;-85
2023/05/13 09:05:30;;;;;;;5.43;2.93;;;;;;;;;;5014239;28;20207;-85
2023/05/13 09:08:06;;;;;;;6.67;3.67;;;;;;;;;;5014580;28;20204;-84
2023/05/13 09:10:34;;;;;;;7.47;3.60;;;;;;;;;;5012157;28;20241;-85
2023/05/13 09:13:03;;;;;;;3.70;2.40;;;;;;;;;;5014301;28;20250;-85
2023/05/13 09:15:32;;;;;;;2.70;2.27;;;;;;;;;;5014006;28;20242;-85
2023/05/13 09:18:02;;;;;;;4.37;3.53;;;;;;;;;;5014131;28;20244;-83
2023/05/13 09:20:30;;;;;;;5.20;3.60;;;;;;;;;;5014529;28;20239;-84
2023/05/13 09:23:02;;;;;;;4.33;2.77;;;;;;;;;;5013812;28;20235;-84
2023/05/13 09:25:31;;;;;;;4.70;3.20;;;;;;;;;;5014011;28;20203;-85
2023/05/13 09:28:00;;;;;;;4.27;2.90;;;;;;;;;;5014075;28;20237;-84
2023/05/13 09:30:29;;;;;;;2.70;2.50;;;;;;;;;;5013709;28;20214;-84
2023/05/13 09:33:08;;;;;;;5.50;3.97;;;;;;;;;;5014330;28;20268;-85
2023/05/13 09:35:38;;;;;;;12.27;4.53;;;;;;;;;;5014617;28;20215;-85
2023/05/13 09:38:15;;;;;;;3.20;2.90;;;;;;;;;;5013128;28;20223;-84
2023/05/13 09:40:50;;;;;;;4.03;3.73;;;;;;;;;;5013812;28;20229;-84
2023/05/13 09:43:20;;;;;;;3.73;2.70;;;;;;;;;;5013534;28;20288;-85
2023/05/13 09:45:48;;;;;;;4.03;3.43;;;;;;;;;;5013298;28;20202;-85
2023/05/13 09:48:18;;;;;;;2.50;2.30;;;;;;;;;;5013637;28;20204;-85
2023/05/13 09:50:48;;;;;;;4.07;3.67;;;;;;;;;;5013300;28;20260;-85
2023/05/13 09:53:19;;;;;;;4.30;2.97;;;;;;;;;;5013233;28;20205;-85
2023/05/13 09:55:48;;;;;;;2.27;2.07;;;;;;;;;;5013632;28;20198;-85
2023/05/13 09:58:17;;;;;;;3.30;2.93;;;;;;;;;;5013241;28;20257;-85
2023/05/13 10:00:46;;;;;;;3.30;2.70;;;;;;;;;;5013312;28;20206;-85
2023/05/13 10:03:15;;;;;;;3.63;3.17;;;;;;;;;;5013408;28;20204;-85
2023/05/13 10:05:44;;;;;;;4.97;4.37;;;;;;;;;;5013064;28;20269;-85
2023/05/13 10:08:13;;;;;;;4.00;3.60;;;;;;;;;;5013196;28;20197;-84
2023/05/13 10:10:44;;;;;;;7.80;3.80;;;;;;;;;;5012970;28;20250;-85
2023/05/13 10:13:15;;;;;;;3.13;2.83;;;;;;;;;;5012975;28;20203;-84
2023/05/13 10:15:49;;;;;;;8.97;5.13;;;;;;;;;;5013252;28;20240;-84
2023/05/13 10:18:17;;;;;;;3.93;3.07;;;;;;;;;;5013027;28;20258;-84
2023/05/13 10:20:51;;;;;;;9.03;4.23;;;;;;;;;;5013282;28;20225;-85
2023/05/13 10:23:20;;;;;;;8.60;3.60;;;;;;;;;;5012984;28;20214;-85
2023/05/13 10:25:50;;;;;;;3.90;3.60;;;;;;;;;;5012931;28;20234;-85
2023/05/13 10:28:19;;;;;;;6.57;4.03;;;;;;;;;;5012808;28;20220;-85
2023/05/13 10:30:50;;;;;;;4.13;3.53;;;;;;;;;;5013180;28;20213;-85
2023/05/13 10:33:18;;;;;;;4.90;3.50;;;;;;;;;;5012852;28;20209;-85
2023/05/13 10:35:51;;;;;;;4.97;3.47;;;;;;;;;;5013013;28;20214;-85
2023/05/13 10:38:28;;;;;;;3.80;2.87;;;;;;;;;;5012787;28;20223;-85
2023/05/13 10:41:10;;;;;;;5.40;2.90;;;;;;;;;;5012360;28;20295;-85
2023/05/13 10:43:39;;;;;;;4.70;4.03;;;;;;;;;;5012627;28;20203;-85
2023/05/13 10:46:08;;;;;;;4.70;3.03;;;;;;;;;;5012612;28;20214;-85
2023/05/13 10:48:41;;;;;;;8.10;3.47;;;;;;;;;;5012069;28;20198;-85
2023/05/13 10:51:14;;;;;;;5.17;4.67;;;;;;;;;;5012612;28;20246;-85
2023/05/13 10:53:44;;;;;;;4.57;4.03;;;;;;;;;;5012307;28;20206;-85
2023/05/13 10:56:14;;;;;;;4.70;4.30;;;;;;;;;;5011833;28;20202;-85
2023/05/13 10:58:42;;;;;;;7.93;4.43;;;;;;;;;;5012158;28;20243;-85
2023/05/13 11:01:18;;;;;;;6.00;3.70;;;;;;;;;;5012251;28;20228;-85
2023/05/13 11:03:51;;;;;;;3.43;3.13;;;;;;;;;;5012551;28;20217;-84
2023/05/13 11:06:21;;;;;;;4.60;3.63;;;;;;;;;;5012508;28;20305;-85
2023/05/13 11:08:50;;;;;;;11.77;4.20;;;;;;;;;;5012563;28;20193;-85
2023/05/13 11:11:33;;;;;;;3.90;3.50;;;;;;;;;;5012281;28;20238;-86
2023/05/13 11:14:09;;;;;;;6.10;5.53;;;;;;;;;;5012346;28;20205;-85
2023/05/13 11:16:38;;;;;;;5.80;3.50;;;;;;;;;;5012265;28;20207;-85
2023/05/13 11:19:10;;;;;;;7.17;3.97;;;;;;;;;;5012215;28;20231;-84
2023/05/13 11:21:40;;;;;;;3.23;2.93;;;;;;;;;;5012393;28;20206;-84
2023/05/13 11:24:08;;;;;;;4.53;4.10;;;;;;;;;;5012072;28;20293;-84
2023/05/13 11:26:48;;;;;;;4.90;4.40;;;;;;;;;;5012194;28;20241;-84
2023/05/13 11:29:28;;;;;;;6.07;5.50;;;;;;;;;;5012324;28;20198;-84
2023/05/13 11:31:57;;;;;;;3.63;2.40;;;;;;;;;;5012140;28;20203;-85
2023/05/13 11:34:28;;;;;;;5.73;4.23;;;;;;;;;;5011599;28;20196;-85
2023/05/13 11:36:58;;;;;;;4.07;3.63;;;;;;;;;;5011974;28;20234;-84
2023/05/13 11:39:26;;;;;;;4.20;3.30;;;;;;;;;;5011979;28;20215;-85
2023/05/13 11:41:56;;;;;;;6.97;2.83;;;;;;;;;;5011948;28;20262;-84
2023/05/13 11:44:25;;;;;;;11.27;3.90;;;;;;;;;;5011838;28;20213;-85
2023/05/13 11:46:54;;;;;;;5.00;3.83;;;;;;;;;;5011994;28;20213;-84
2023/05/13 11:49:33;;;;;;;5.03;4.00;;;;;;;;;;5012528;28;20301;-84
2023/05/13 11:52:02;;;;;;;4.63;4.23;;;;;;;;;;5011790;28;20203;-84
2023/05/13 11:54:31;;;;;;;4.23;3.87;;;;;;;;;;5012042;28;20211;-85
2023/05/13 11:57:00;;;;;;;3.30;2.97;;;;;;;;;;5011863;28;20204;-85
2023/05/13 11:59:29;;;;;;;7.97;4.57;;;;;;;;;;5011401;28;20220;-84
2023/05/13 12:02:12;;;;;;;6.70;5.50;;;;;;;;;;5012740;28;20301;-85
2023/05/13 12:04:40;;;;;;;7.93;6.10;;;;;;;;;;5011690;28;20201;-85
2023/05/13 12:07:12;;;;;;;8.73;6.13;;;;;;;;;;5010336;28;20204;-86
2023/05/13 12:09:40;;;;;;;8.37;6.87;;;;;;;;;;5016652;28;20242;-85
2023/05/13 12:12:12;;;;;;;6.20;4.43;;;;;;;;;;5015581;28;20245;-84
2023/05/13 12:14:41;;;;;;;4.37;3.97;;;;;;;;;;5014951;28;20260;-85
2023/05/13 12:17:10;;;;;;;4.93;4.53;;;;;;;;;;5015100;28;20223;-84
2023/05/13 12:19:38;;;;;;;10.90;6.13;;;;;;;;;;5015048;28;20305;-84
2023/05/13 12:22:07;;;;;;;4.37;3.97;;;;;;;;;;5014933;28;20209;-84
2023/05/13 12:24:36;;;;;;;8.13;5.77;;;;;;;;;;5015036;28;20203;-84
2023/05/13 12:27:09;;;;;;;5.07;4.53;;;;;;;;;;5015185;28;20383;-85
2023/05/13 12:29:43;;;;;;;6.57;4.20;;;;;;;;;;5015028;28;20211;-85
2023/05/13 12:32:12;;;;;;;7.73;4.67;;;;;;;;;;5015292;28;20210;-84
2023/05/13 12:34:40;;;;;;;6.43;5.83;;;;;;;;;;5015281;28;20210;-85
2023/05/13 12:37:12;;;;;;;8.37;5.77;;;;;;;;;;5014912;28;20234;-84
2023/05/13 12:39:44;;;;;;;4.97;4.30;;;;;;;;;;5012535;28;20248;-85
2023/05/13 12:42:16;;;;;;;5.87;5.27;;;;;;;;;;5005777;28;20228;-85
2023/05/13 12:44:46;;;;;;;5.57;5.07;;;;;;;;;;5016075;28;20206;-85
2023/05/13 12:47:18;;;;;;;5.17;4.67;;;;;;;;;;5020913;28;20301;-85
2023/05/13 12:49:53;;;;;;;7.17;5.73;;;;;;;;;;5015950;28;20262;-84
2023/05/13 12:52:21;;;;;;;5.03;4.50;;;;;;;;;;5012057;28;20239;-84
2023/05/13 12:54:50;;;;;;;3.93;3.60;;;;;;;;;;5011622;28;20205;-84
2023/05/13 12:57:19;;;;;;;3.23;2.97;;;;;;;;;;5011575;28;20214;-83
2023/05/13 12:59:52;;;;;;;3.90;3.60;;;;;;;;;;5012711;28;20231;-85
2023/05/13 13:02:20;;;;;;;7.20;6.50;;;;;;;;;;5006754;28;20205;-85
2023/05/13 13:04:48;;;;;;;10.53;6.07;;;;;;;;;;5001415;28;20205;-85
2023/05/13 13:07:20;;;;;;;6.00;4.27;;;;;;;;;;5006915;28;20236;-85
2023/05/13 13:09:48;;;;;;;7.03;5.13;;;;;;;;;;5007046;28;20283;-85
2023/05/13 13:12:16;;;;;;;7.27;5.13;;;;;;;;;;5007653;28;20255;-85
2023/05/13 13:14:45;;;;;;;3.27;2.97;;;;;;;;;;5006487;28;20223;-85
2023/05/13 13:17:15;;;;;;;5.67;3.27;;;;;;;;;;5008038;28;20199;-85
2023/05/13 13:19:43;;;;;;;6.10;4.73;;;;;;;;;;5002515;28;20275;-85
2023/05/13 13:22:12;;;;;;;14.37;7.00;;;;;;;;;;5006802;28;20259;-85
2023/05/13 13:24:40;;;;;;;5.23;4.40;;;;;;;;;;5008546;28;20211;-85
2023/05/13 13:27:11;;;;;;;4.00;3.63;;;;;;;;;;5003192;28;20325;-85
2023/05/13 13:29:39;;;;;;;5.90;4.53;;;;;;;;;;5007418;28;20264;-84
2023/05/13 13:32:08;;;;;;;3.40;3.10;;;;;;;;;;5005101;28;20212;-84
2023/05/13 13:34:38;;;;;;;5.63;4.83;;;;;;;;;;5007029;28;20201;-84
2023/05/13 13:37:06;;;;;;;8.60;5.33;;;;;;;;;;5007431;28;20246;-84
2023/05/13 13:39:36;;;;;;;6.77;4.50;;;;;;;;;;5008600;28;20277;-84
2023/05/13 13:42:04;;;;;;;3.57;3.27;;;;;;;;;;5005260;28;20258;-84
2023/05/13 13:44:35;;;;;;;4.43;4.03;;;;;;;;;;5010947;28;20208;-84
2023/05/13 13:47:04;;;;;;;5.90;3.10;;;;;;;;;;5008895;28;20201;-84
2023/05/13 13:49:34;;;;;;;6.63;4.87;;;;;;;;;;5008574;28;20189;-85
2023/05/13 13:52:04;;;;;;;6.10;4.07;;;;;;;;;;5010508;28;20210;-84
2023/05/13 13:54:37;;;;;;;7.03;3.37;;;;;;;;;;5010048;28;20206;-84
2023/05/13 13:57:06;;;;;;;5.03;4.17;;;;;;;;;;5008057;28;20205;-85
2023/05/13 13:59:34;;;;;;;8.80;3.67;;;;;;;;;;5005626;28;20271;-84
2023/05/13 14:02:05;;;;;;;7.07;4.33;;;;;;;;;;5006289;28;20295;-84
2023/05/13 14:04:34;;;;;;;4.97;3.77;;;;;;;;;;5002753;28;20218;-84
2023/05/13 14:07:06;;;;;;;5.80;5.20;;;;;;;;;;4998731;28;20213;-84
2023/05/13 14:09:34;;;;;;;9.00;6.00;;;;;;;;;;5003117;28;20207;-84
2023/05/13 14:12:03;;;;;;;7.10;4.30;;;;;;;;;;5004658;28;20251;-84
2023/05/13 14:14:31;;;;;;;5.07;4.67;;;;;;;;;;5006454;28;20214;-84
2023/05/13 14:17:00;;;;;;;8.83;5.40;;;;;;;;;;5007937;28;20211;-85
2023/05/13 14:19:28;;;;;;;5.00;4.40;;;;;;;;;;5005971;28;20269;-85
2023/05/13 14:21:57;;;;;;;8.37;6.13;;;;;;;;;;5006135;28;20206;-85
2023/05/13 14:24:27;;;;;;;11.23;5.67;;;;;;;;;;5007057;28;20270;-85
2023/05/13 14:26:55;;;;;;;8.07;4.27;;;;;;;;;;5004947;28;20221;-85
2023/05/13 14:29:24;;;;;;;5.83;4.80;;;;;;;;;;5002428;28;20193;-85
2023/05/13 14:31:52;;;;;;;3.27;2.97;;;;;;;;;;5004590;28;20213;-85
2023/05/13 14:34:22;;;;;;;5.07;3.70;;;;;;;;;;5003152;28;20207;-85
2023/05/13 14:36:51;;;;;;;5.03;4.67;;;;;;;;;;5004078;28;20303;-85
2023/05/13 14:39:20;;;;;;;11.53;5.30;;;;;;;;;;5005076;28;20231;-85
2023/05/13 14:41:49;;;;;;;3.63;2.93;;;;;;;;;;5004042;28;20270;-85
2023/05/13 14:44:18;;;;;;;8.40;5.27;;;;;;;;;;5004588;28;20208;-85
2023/05/13 14:46:47;;;;;;;6.13;5.30;;;;;;;;;;5007068;28;20220;-84
2023/05/13 14:49:15;;;;;;;8.53;4.43;;;;;;;;;;5004492;28;20209;-85
2023/05/13 14:51:43;;;;;;;10.13;4.93;;;;;;;;;;5004623;28;20243;-85
2023/05/13 14:54:13;;;;;;;3.27;2.73;;;;;;;;;;4999513;28;20205;-85